Time;durP1;ratioP1;P1;durP2;ratioP2;P2;SDS_P1;SDS_P2;PMS_P1;PMS_P2;Temp;Humidity;BMP_temperature;BMP_pressure;BME280_temperature;BME280_humidity;BME280_pressure;Samples;Min_cycle;Max_cycle;Signal;HPM_P1;HPM_P2
2023/03/31 00:04:15;;;;;;;5.03;1.00;;;;;;;17.16;60.63;96151.03;10356835;28;20037;-30
2023/03/31 00:09:17;;;;;;;2.03;0.80;;;;;;;17.15;61.24;96111.41;10379683;28;20053;-30
2023/03/31 00:14:19;;;;;;;4.00;0.75;;;;;;;17.19;61.82;96110.53;10354352;28;20033;-29
2023/03/31 00:19:20;;;;;;;1.90;0.73;;;;;;;17.11;55.29;96110.59;10332802;28;20038;-29
2023/03/31 00:24:20;;;;;;;1.40;0.70;;;;;;;17.08;54.07;96099.63;10354432;28;20426;-29
2023/03/31 00:29:21;;;;;;;1.30;0.47;;;;;;;17.07;53.73;96103.84;10358228;28;20046;-30
2023/03/31 00:34:23;;;;;;;0.70;0.47;;;;;;;17.08;53.75;96110.56;10340641;28;20045;-30
2023/03/31 00:39:23;;;;;;;1.47;0.67;;;;;;;17.08;53.85;96117.34;10376337;28;20036;-30
2023/03/31 00:44:24;;;;;;;0.70;0.40;;;;;;;17.08;53.61;96122.41;10368419;28;20037;-30
2023/03/31 00:49:36;;;;;;;1.00;0.68;;;;;;;17.07;53.35;96123.25;10328870;28;20313;-29
2023/03/31 00:54:38;;;;;;;1.95;0.70;;;;;;;17.07;53.42;96143.47;10346142;28;20543;-30
2023/03/31 00:59:52;;;;;;;1.05;0.60;;;;;;;17.07;53.42;96140.94;10332771;28;20037;-30
2023/03/31 01:05:00;;;;;;;2.25;0.98;;;;;;;17.04;53.21;96138.41;10335292;28;20487;-29
2023/03/31 01:10:03;;;;;;;1.10;0.52;;;;;;;17.06;53.18;96116.50;10336498;28;20413;-30
2023/03/31 01:15:05;;;;;;;2.63;0.90;;;;;;;17.10;59.11;96070.13;10347060;28;20148;-30
2023/03/31 01:20:12;;;;;;;1.80;0.88;;;;;;;17.13;61.21;96058.28;10350183;28;20041;-30
2023/03/31 01:25:21;;;;;;;;;;;;;;;17.18;60.56;96065.88;10356687;28;20072;-30
2023/03/31 01:30:58;;;;;;;1.08;0.45;;;;;;;17.09;55.38;96030.50;10330550;28;19917;-30
2023/03/31 01:36:41;;;;;;;2.65;0.60;;;;;;;17.05;53.43;96017.03;10340878;28;20033;-30
2023/03/31 01:41:52;;;;;;;1.27;0.80;;;;;;;17.01;53.17;95997.69;10315825;28;20054;-30
2023/03/31 01:47:01;;;;;;;0.90;0.40;;;;;;;17.00;52.84;95993.44;10356336;28;20069;-30
2023/03/31 01:52:17;;;;;;;1.52;0.60;;;;;;;17.01;52.73;95958.91;10315347;28;20041;-30
2023/03/31 01:57:35;;;;;;;1.30;0.50;;;;;;;16.99;52.76;95945.44;10335542;28;20030;-29
2023/03/31 02:02:41;;;;;;;1.63;0.75;;;;;;;17.02;52.63;95942.88;10330917;28;20049;-30
2023/03/31 02:07:47;;;;;;;0.90;0.43;;;;;;;17.00;52.77;95940.34;10332600;28;20497;-30
2023/03/31 02:12:49;;;;;;;1.08;0.50;;;;;;;17.03;52.41;95919.28;10358209;28;20620;-29
2023/03/31 02:17:55;;;;;;;1.55;0.75;;;;;;;17.06;52.29;95896.50;10353803;28;20033;-30
2023/03/31 02:22:56;;;;;;;;;;;;;;;17.07;52.04;95883.84;10365866;28;20115;-29
2023/03/31 02:28:07;;;;;;;1.20;0.80;;;;;;;17.11;59.97;95875.38;10348247;28;20003;-30
2023/03/31 02:33:07;;;;;;;0.77;0.60;;;;;;;17.14;60.48;95859.34;10355002;28;20018;-30
2023/03/31 02:38:10;;;;;;;0.85;0.60;;;;;;;17.15;58.58;95834.03;10348373;28;20034;-29
2023/03/31 02:43:11;;;;;;;1.20;0.68;;;;;;;17.11;53.45;95826.50;10329041;28;20066;-30
2023/03/31 02:48:35;;;;;;;0.85;0.55;;;;;;;17.07;52.63;95790.28;10345101;28;20061;-30
2023/03/31 02:53:57;;;;;;;0.60;0.50;;;;;;;17.06;52.26;95777.66;10340303;28;20122;-29
2023/03/31 02:59:20;;;;;;;1.02;0.60;;;;;;;17.06;52.45;95765.84;10329285;28;20040;-30
2023/03/31 03:04:36;;;;;;;2.43;0.53;;;;;;;17.04;52.34;95749.84;10325408;28;20585;-30
2023/03/31 03:10:04;;;;;;;0.85;0.52;;;;;;;17.03;52.26;95722.03;10346310;28;20046;-30
2023/03/31 03:15:31;;;;;;;0.98;0.65;;;;;;;17.04;51.82;95699.28;10333287;28;20026;-30
2023/03/31 03:20:34;;;;;;;1.02;0.80;;;;;;;17.06;51.89;95684.09;10316924;28;20081;-34
2023/03/31 03:25:35;;;;;;;1.20;0.68;;;;;;;17.04;51.78;95663.03;10351069;28;20070;-29
2023/03/31 03:30:36;;;;;;;1.63;0.50;;;;;;;17.07;51.88;95635.22;10349460;28;20134;-30
2023/03/31 03:35:36;;;;;;;1.50;0.80;;;;;;;17.06;51.43;95619.19;10354426;28;20030;-30
2023/03/31 03:40:37;;;;;;;2.13;1.00;;;;;;;17.16;59.95;95597.97;10371284;28;20045;-30
2023/03/31 03:45:37;;;;;;;1.93;1.40;;;;;;;17.16;60.63;95582.00;10361595;28;20037;-29
2023/03/31 03:50:38;;;;;;;0.57;0.40;;;;;;;17.16;54.41;95552.47;10348448;28;20038;-29
2023/03/31 03:55:38;;;;;;;1.03;0.83;;;;;;;17.14;52.42;95558.41;10343870;28;20042;-30
2023/03/31 04:00:38;;;;;;;1.73;0.60;;;;;;;17.12;52.59;95530.63;10343563;28;20038;-30
2023/03/31 04:05:39;;;;;;;1.23;0.50;;;;;;;17.16;52.23;95537.28;10346837;28;20073;-30
2023/03/31 04:10:47;;;;;;;0.68;0.40;;;;;;;17.20;53.19;95521.22;10372205;28;20300;-30
2023/03/31 04:15:48;;;;;;;2.80;0.70;;;;;;;17.20;52.89;95487.50;10370952;28;20029;-30
2023/03/31 04:20:53;;;;;;;1.80;0.70;;;;;;;17.21;52.81;95504.34;10362849;28;20490;-30
2023/03/31 04:25:53;;;;;;;1.27;0.70;;;;;;;17.21;52.25;95524.56;10372852;28;20034;-30
2023/03/31 04:30:57;;;;;;;1.07;0.73;;;;;;;17.21;52.42;95542.28;10374166;28;20038;-30
2023/03/31 04:36:05;;;;;;;0.30;0.30;;;;;;;17.18;52.46;95565.94;10358005;28;20030;-30
2023/03/31 04:41:06;;;;;;;1.48;0.70;;;;;;;17.19;52.19;95531.34;10374949;28;20034;-29
2023/03/31 04:46:07;;;;;;;1.70;0.70;;;;;;;17.21;52.37;95534.69;10365271;28;20121;-30
2023/03/31 04:51:08;;;;;;;4.78;0.90;;;;;;;17.29;55.86;95523.63;10362320;28;20565;-30
2023/03/31 04:56:08;;;;;;;5.03;1.13;;;;;;;17.32;59.47;95528.63;10356686;28;20392;-29
2023/03/31 05:01:12;;;;;;;0.90;0.50;;;;;;;17.29;53.69;95528.69;10366330;28;20037;-30
2023/03/31 05:06:16;;;;;;;0.65;0.50;;;;;;;17.26;52.99;95527.88;10349308;28;20577;-30
2023/03/31 05:11:16;;;;;;;2.85;0.70;;;;;;;17.21;52.83;95527.09;10357994;28;20034;-30
2023/03/31 05:16:17;;;;;;;3.97;0.60;;;;;;;17.26;52.40;95543.06;10331771;28;20030;-30
2023/03/31 05:21:20;;;;;;;1.50;0.68;;;;;;;17.24;52.59;95534.66;10375039;28;20398;-30
2023/03/31 05:26:24;;;;;;;3.60;0.90;;;;;;;17.25;53.47;95521.97;10363390;28;20033;-30
2023/03/31 05:31:25;;;;;;;12.73;2.65;;;;;;;17.19;56.25;95511.13;10362100;28;20038;-30
2023/03/31 05:36:25;;;;;;;4.22;0.90;;;;;;;17.19;52.45;95522.09;10332245;28;20026;-30
2023/03/31 05:41:26;;;;;;;6.38;1.05;;;;;;;17.21;52.59;95489.16;10368140;28;20512;-29
2023/03/31 05:46:27;;;;;;;3.20;1.35;;;;;;;17.17;53.27;95439.50;10356464;28;20044;-29
2023/03/31 05:51:27;;;;;;;2.53;1.30;;;;;;;17.13;53.67;95431.13;10375040;28;20064;-30
2023/03/31 05:56:28;;;;;;;24.63;2.83;;;;;;;17.13;53.59;95405.84;10359880;28;20038;-30
2023/03/31 06:01:28;;;;;;;13.50;4.72;;;;;;;17.24;60.86;95423.38;10340738;28;20293;-30
2023/03/31 06:06:33;;;;;;;6.93;2.58;;;;;;;17.28;60.89;95404.75;10338952;28;20041;-30
2023/03/31 06:11:34;;;;;;;5.78;1.55;;;;;;;17.27;55.69;95469.72;10356200;28;20029;-30
2023/03/31 06:16:34;;;;;;;6.95;1.58;;;;;;;17.24;53.71;95626.53;10351320;28;20044;-29
2023/03/31 06:21:35;;;;;;;10.32;2.10;;;;;;;17.20;53.14;95695.72;10363312;28;20033;-30
2023/03/31 06:26:37;;;;;;;10.02;1.98;;;;;;;17.16;52.80;95701.66;10367500;28;20030;-30
2023/03/31 06:31:38;;;;;;;7.63;2.20;;;;;;;17.17;53.02;95705.06;10368023;28;20037;-30
2023/03/31 06:36:38;;;;;;;4.47;1.80;;;;;;;17.15;52.55;95721.94;10365380;28;20033;-29
2023/03/31 06:41:38;;;;;;;7.20;1.43;;;;;;;17.12;52.55;95681.50;10354742;28;20045;-29
2023/03/31 06:46:39;;;;;;;4.13;1.80;;;;;;;17.13;52.72;95716.03;10380752;28;20030;-30
2023/03/31 06:51:39;;;;;;;3.72;1.60;;;;;;;17.08;52.69;95607.34;10393344;28;20176;-30
2023/03/31 06:56:40;;;;;;;12.33;2.97;;;;;;;17.16;52.45;95637.63;10367105;28;20121;-30
2023/03/31 07:01:41;;;;;;;8.17;3.00;;;;;;;17.15;52.34;95608.13;10375683;28;21185;-30
2023/03/31 07:06:41;;;;;;;7.93;2.58;;;;;;;17.14;53.09;95622.47;10369307;28;20056;-30
2023/03/31 07:11:42;;;;;;;14.37;6.50;;;;;;;17.28;58.21;95627.34;10342236;28;20038;-30
2023/03/31 07:16:42;;;;;;;12.17;7.17;;;;;;;17.37;59.35;95618.00;10349689;28;20046;-29
2023/03/31 07:21:42;;;;;;;19.07;6.57;;;;;;;17.34;57.78;95612.09;10375011;28;20091;-30
2023/03/31 07:26:43;;;;;;;6.50;3.80;;;;;;;17.24;53.61;95613.06;10359796;28;20042;-30
2023/03/31 07:31:46;;;;;;;11.48;6.68;;;;;;;17.22;52.86;95617.28;10361880;28;20038;-30
2023/03/31 07:36:46;;;;;;;10.43;5.25;;;;;;;17.18;53.22;95610.63;10354981;28;20041;-29
2023/03/31 07:41:47;;;;;;;25.63;6.03;;;;;;;17.16;54.75;95633.38;10349850;28;20038;-30
2023/03/31 07:46:47;;;;;;;18.83;5.82;;;;;;;17.22;54.03;95622.34;10362331;28;20328;-30
2023/03/31 07:51:47;;;;;;;17.53;5.73;;;;;;;17.22;53.58;95643.44;10339755;28;20041;-30
2023/03/31 07:56:48;;;;;;;10.57;4.90;;;;;;;17.21;53.38;95640.91;10363367;28;20486;-30
2023/03/31 08:01:48;;;;;;;11.03;5.03;;;;;;;17.22;53.34;95642.59;10347913;28;20065;-30
2023/03/31 08:06:50;;;;;;;11.23;4.70;;;;;;;17.21;53.25;95625.75;10360080;28;20034;-30
2023/03/31 08:11:50;;;;;;;15.48;5.07;;;;;;;17.21;53.14;95618.16;10350907;28;20046;-30
2023/03/31 08:16:54;;;;;;;10.07;4.93;;;;;;;17.18;52.71;95611.47;10350790;28;20483;-30
2023/03/31 08:21:55;;;;;;;21.27;7.50;;;;;;;17.26;60.25;95631.59;10344104;28;20050;-30
2023/03/31 08:26:56;;;;;;;13.60;8.37;;;;;;;17.32;61.34;95634.06;10367892;28;20041;-29
2023/03/31 08:31:56;;;;;;;12.30;5.88;;;;;;;17.31;59.30;95625.63;10350888;28;20403;-30
2023/03/31 08:36:56;;;;;;;11.02;5.07;;;;;;;17.26;54.13;95651.81;10352364;28;20037;-30
2023/03/31 08:42:01;;;;;;;6.40;3.53;;;;;;;17.22;52.88;95632.47;10340785;28;20030;-30
2023/03/31 08:47:06;;;;;;;7.60;3.78;;;;;;;17.20;52.98;95629.97;10350895;28;20297;-30
2023/03/31 08:52:13;;;;;;;7.80;4.43;;;;;;;17.26;52.94;95654.34;10380391;28;20037;-30
2023/03/31 08:57:30;;;;;;;8.65;4.45;;;;;;;17.29;53.24;95631.53;10371716;28;20510;-30
2023/03/31 09:02:54;;;;;;;10.00;4.40;;;;;;;17.33;53.46;95654.25;10388692;28;20124;-30
2023/03/31 09:08:15;;;;;;;10.32;4.07;;;;;;;17.35;54.95;95631.47;10345057;28;20468;-30
2023/03/31 09:13:34;;;;;;;11.40;6.03;;;;;;;17.35;54.11;95614.63;10357690;28;20053;-30
2023/03/31 09:18:37;;;;;;;18.02;9.32;;;;;;;17.32;53.72;95609.56;10351076;28;20052;-30
2023/03/31 09:23:43;;;;;;;12.35;5.57;;;;;;;17.25;55.54;95577.63;10349145;28;20455;-29
2023/03/31 09:28:45;;;;;;;52.72;11.55;;;;;;;17.24;55.54;95590.31;10383992;28;20038;-30
2023/03/31 09:33:50;;;;;;;25.13;9.23;;;;;;;17.36;58.79;95570.78;10349628;28;20034;-30
2023/03/31 09:38:50;;;;;;;22.05;9.32;;;;;;;17.43;60.49;95544.53;10375155;28;20113;-29
2023/03/31 09:43:51;;;;;;;23.03;7.13;;;;;;;17.40;56.04;95541.22;10369326;28;20033;-30
2023/03/31 09:48:59;;;;;;;20.10;6.63;;;;;;;17.37;54.64;95513.41;10372508;28;20295;-30
2023/03/31 09:54:23;;;;;;;28.02;7.32;;;;;;;17.36;54.43;95509.22;10348542;28;20776;-30
2023/03/31 09:59:34;;;;;;;24.77;6.57;;;;;;;17.33;54.57;95532.00;10360071;28;20038;-30
2023/03/31 10:04:45;;;;;;;15.20;6.07;;;;;;;17.33;54.70;95529.47;10367702;28;20073;-29
2023/03/31 10:09:45;;;;;;;18.55;6.40;;;;;;;17.32;54.68;95548.06;10346013;28;20038;-30
2023/03/31 10:14:49;;;;;;;19.33;5.57;;;;;;;17.34;54.67;95505.84;10351491;28;20048;-30
2023/03/31 10:19:55;;;;;;;20.92;5.80;;;;;;;17.33;54.41;95509.25;10355540;28;20300;-30
2023/03/31 10:25:15;;;;;;;18.30;5.60;;;;;;;17.36;54.88;95501.63;10353948;28;20434;-29
2023/03/31 10:30:24;;;;;;;12.15;6.68;;;;;;;17.38;54.90;95504.97;10356814;28;20038;-30
2023/03/31 10:35:31;;;;;;;16.20;6.10;;;;;;;17.41;55.00;95532.78;10343944;28;20038;-30
2023/03/31 10:40:33;;;;;;;13.13;5.78;;;;;;;17.44;55.37;95535.25;10336451;28;20035;-30
2023/03/31 10:45:53;;;;;;;11.38;6.18;;;;;;;17.47;61.21;95527.59;10363471;28;20100;-30
2023/03/31 10:50:59;;;;;;;11.73;6.35;;;;;;;17.50;60.78;95527.56;10359848;28;20033;-31
2023/03/31 10:56:18;;;;;;;14.60;7.18;;;;;;;17.42;55.73;95494.78;10353435;28;20036;-29
2023/03/31 11:01:42;;;;;;;13.98;8.30;;;;;;;17.41;55.31;95487.22;10358072;28;20522;-30
2023/03/31 11:07:01;;;;;;;20.48;7.05;;;;;;;17.38;57.30;95452.69;10347603;28;20232;-30
2023/03/31 11:12:23;;;;;;;31.67;7.22;;;;;;;17.42;56.29;95435.78;10378150;28;20041;-30
2023/03/31 11:17:30;;;;;;;15.75;7.22;;;;;;;17.39;56.38;95453.50;10358048;28;20456;-30
2023/03/31 11:22:36;;;;;;;20.85;6.80;;;;;;;17.38;56.39;95441.72;10368723;28;20050;-30
2023/03/31 11:27:40;;;;;;;18.70;7.65;;;;;;;17.36;56.18;95418.16;10367376;28;20184;-29
2023/03/31 11:32:59;;;;;;;16.58;5.47;;;;;;;17.38;56.64;95467.03;10355914;28;20409;-30
2023/03/31 11:38:37;;;;;;;11.75;4.70;;;;;;;17.44;57.38;95475.38;10357357;28;20041;-30
2023/03/31 11:43:43;;;;;;;11.45;4.20;;;;;;;17.59;58.18;95461.63;10330647;28;20057;-30
2023/03/31 11:48:58;;;;;;;14.38;4.30;;;;;;;17.66;59.12;95469.09;10379626;28;20038;-30
2023/03/31 11:54:02;;;;;;;10.85;4.60;;;;;;;17.72;59.11;95478.25;10366691;28;20038;-30
2023/03/31 11:59:04;;;;;;;10.27;4.60;;;;;;;17.77;59.61;95648.63;10352002;28;20030;-30
2023/03/31 12:04:23;;;;;;;7.57;3.70;;;;;;;17.82;59.70;95561.63;10352492;28;20030;-29
2023/03/31 12:09:33;;;;;;;8.43;3.92;;;;;;;17.84;59.56;95519.41;10353053;28;20473;-30
2023/03/31 12:14:39;;;;;;;6.05;3.38;;;;;;;17.92;59.46;95501.56;10349888;28;20106;-30
2023/03/31 12:19:56;;;;;;;7.70;3.97;;;;;;;17.92;59.78;95483.84;10346281;28;20038;-30
2023/03/31 12:24:57;;;;;;;8.68;3.10;;;;;;;17.90;60.68;95450.13;10372398;28;20049;-30
2023/03/31 12:30:01;;;;;;;8.48;3.95;;;;;;;17.94;60.01;95439.91;10372256;28;20485;-30
2023/03/31 12:35:14;;;;;;;10.65;3.95;;;;;;;17.90;58.30;95412.16;10373602;28;20034;-30
2023/03/31 12:40:26;;;;;;;11.32;4.10;;;;;;;17.89;55.87;95405.38;10353929;28;20030;-29
2023/03/31 12:45:38;;;;;;;11.93;3.42;;;;;;;17.89;56.21;95407.91;10374702;28;20066;-30
2023/03/31 12:50:53;;;;;;;10.93;3.88;;;;;;;17.92;55.42;95359.78;10357671;28;20512;-30
2023/03/31 12:55:59;;;;;;;15.73;4.15;;;;;;;18.08;54.18;95356.91;10372689;28;20036;-30
2023/03/31 13:01:10;;;;;;;10.40;2.88;;;;;;;18.09;53.50;95342.56;10368579;28;20457;-30
2023/03/31 13:06:29;;;;;;;6.75;2.13;;;;;;;18.07;51.85;95345.09;10370021;28;20172;-30
2023/03/31 13:11:32;;;;;;;14.15;2.22;;;;;;;17.96;51.44;95363.91;10354437;28;20038;-29
2023/03/31 13:16:34;;;;;;;10.40;1.92;;;;;;;17.98;51.89;95357.13;10376753;28;20036;-29
2023/03/31 13:21:52;;;;;;;4.97;2.22;;;;;;;17.98;51.56;95347.81;10366597;28;20095;-30
2023/03/31 13:26:58;;;;;;;10.15;2.67;;;;;;;17.98;51.85;95324.22;10337148;28;20045;-30
2023/03/31 13:31:58;;;;;;;60.58;6.43;;;;;;;17.96;51.83;95328.47;10341216;28;20096;-30
2023/03/31 13:37:35;;;;;;;14.88;4.50;;;;;;;17.89;52.12;95365.72;10353885;28;20112;-29
2023/03/31 13:43:05;;;;;;;16.85;4.53;;;;;;;17.76;53.54;95394.66;10355585;28;20068;-30
2023/03/31 13:48:25;;;;;;;8.90;3.17;;;;;;;17.76;53.94;95520.41;10374790;28;20456;-30
2023/03/31 13:53:41;;;;;;;14.43;3.97;;;;;;;17.73;54.99;95533.94;10367348;28;20022;-30
2023/03/31 13:58:57;;;;;;;11.48;3.22;;;;;;;17.60;53.84;95511.38;10378233;28;20041;-30
2023/03/31 14:04:34;;;;;;;7.90;3.08;;;;;;;17.62;51.88;95475.06;10377384;28;20084;-30
2023/03/31 14:09:35;;;;;;;;;;;;;;;17.63;51.31;95428.66;10355748;28;20049;-30
2023/03/31 14:14:39;;;;;;;10.48;2.40;;;;;;;17.60;51.80;95418.59;10356534;28;19912;-30
2023/03/31 14:19:55;;;;;;;9.23;3.13;;;;;;;17.61;51.55;95439.66;10356865;28;20034;-29
2023/03/31 14:25:06;;;;;;;4.60;2.40;;;;;;;17.61;51.06;95460.75;10345615;28;20046;-30
2023/03/31 14:30:41;;;;;;;8.00;2.42;;;;;;;17.58;51.02;95450.66;10360701;28;20516;-29
2023/03/31 14:36:06;;;;;;;6.78;2.75;;;;;;;17.56;50.81;95476.88;10343908;28;20069;-30
2023/03/31 14:41:28;;;;;;;10.88;2.28;;;;;;;17.51;50.60;95459.22;10346107;28;20046;-30
2023/03/31 14:46:33;;;;;;;5.95;2.55;;;;;;;17.54;51.94;95448.22;10369621;28;20509;-30
2023/03/31 14:51:34;;;;;;;17.70;3.35;;;;;;;17.57;57.44;95427.94;10335311;28;20044;-30
2023/03/31 14:56:39;;;;;;;8.68;2.78;;;;;;;17.57;52.96;95423.69;10353694;28;20391;-30
2023/03/31 15:01:40;;;;;;;6.50;1.83;;;;;;;17.49;50.58;95435.63;10351353;28;20032;-29
2023/03/31 15:06:44;;;;;;;5.88;2.85;;;;;;;17.44;50.09;95432.38;10368844;28;20031;-30
2023/03/31 15:11:46;;;;;;;3.33;1.70;;;;;;;17.42;50.44;95441.66;10369335;28;20444;-30
2023/03/31 15:16:49;;;;;;;5.07;2.35;;;;;;;17.43;50.27;95466.13;10378171;28;20038;-30
2023/03/31 15:22:15;;;;;;;7.38;2.53;;;;;;;17.41;52.36;95456.88;10363894;28;20044;-30
2023/03/31 15:27:29;;;;;;;7.50;2.20;;;;;;;17.35;49.62;95436.69;10362393;28;20052;-30
2023/03/31 15:32:33;;;;;;;3.95;1.95;;;;;;;17.36;49.62;95429.13;10382307;28;20033;-30
2023/03/31 15:37:39;;;;;;;3.10;1.60;;;;;;;17.37;49.49;95425.72;10373614;28;20405;-30
2023/03/31 15:42:40;;;;;;;;;;;;;;;17.38;49.43;95406.31;10363884;28;20485;-30
2023/03/31 15:47:51;;;;;;;6.43;2.13;;;;;;;17.41;55.23;95414.69;10379538;28;20028;-30
2023/03/31 15:52:54;;;;;;;5.32;2.05;;;;;;;17.56;55.04;95406.84;10364945;28;20037;-30
2023/03/31 15:57:57;;;;;;;5.63;1.90;;;;;;;17.47;52.57;95401.09;10382044;28;20554;-30
2023/03/31 16:03:00;;;;;;;5.78;1.58;;;;;;;17.45;49.22;95398.59;10375708;28;20052;-30
2023/03/31 16:08:02;;;;;;;2.97;1.48;;;;;;;17.41;49.37;95391.91;10362804;28;20490;-29
2023/03/31 16:13:05;;;;;;;5.15;2.05;;;;;;;17.42;49.33;95407.94;10364620;28;20092;-29
2023/03/31 16:18:23;;;;;;;5.75;1.55;;;;;;;17.42;49.48;95397.81;10381528;28;20088;-29
2023/03/31 16:23:29;;;;;;;5.22;1.73;;;;;;;17.41;48.92;95391.09;10371275;28;20507;-30
2023/03/31 16:28:32;;;;;;;2.83;1.55;;;;;;;17.34;49.20;95389.50;10379380;28;20033;-30
2023/03/31 16:33:54;;;;;;;4.18;1.65;;;;;;;17.40;48.77;95384.38;10380010;28;20568;-29
2023/03/31 16:38:54;;;;;;;6.05;1.40;;;;;;;17.43;48.97;95400.34;10361447;28;20054;-29
2023/03/31 16:43:55;;;;;;;4.43;1.53;;;;;;;17.44;49.14;95408.75;10376847;28;20132;-30
2023/03/31 16:48:55;;;;;;;7.73;2.27;;;;;;;17.49;54.73;95406.97;10371696;28;20093;-30
2023/03/31 16:53:56;;;;;;;4.90;2.07;;;;;;;17.59;56.26;95432.09;10350349;28;20773;-29
2023/03/31 16:58:56;;;;;;;3.57;1.83;;;;;;;17.61;52.76;95420.25;10365467;28;20046;-30
2023/03/31 17:03:56;;;;;;;2.57;1.73;;;;;;;17.55;49.86;95414.44;10349168;28;20809;-30
2023/03/31 17:08:57;;;;;;;3.73;1.40;;;;;;;17.50;49.05;95431.41;10364888;28;20289;-29
2023/03/31 17:13:58;;;;;;;3.25;1.58;;;;;;;17.51;49.62;95435.63;10381628;28;20038;-29
2023/03/31 17:18:59;;;;;;;6.68;1.42;;;;;;;17.50;49.25;95432.25;10368383;28;20046;-30
2023/03/31 17:23:59;;;;;;;3.88;1.45;;;;;;;17.51;49.18;95433.09;10372588;28;20041;-29
2023/03/31 17:29:00;;;;;;;4.07;1.57;;;;;;;17.52;48.98;95432.22;10372371;28;20042;-30
2023/03/31 17:34:00;;;;;;;2.97;1.67;;;;;;;17.50;49.35;95431.41;10359874;28;20121;-30
2023/03/31 17:39:03;;;;;;;4.00;1.40;;;;;;;17.50;49.04;95421.31;10348663;28;20038;-29
2023/03/31 17:44:06;;;;;;;2.83;1.65;;;;;;;17.49;49.11;95417.09;10374020;28;20765;-29
2023/03/31 17:49:07;;;;;;;3.10;1.27;;;;;;;17.45;49.28;95403.66;10376131;28;20067;-30
2023/03/31 17:54:07;;;;;;;4.63;1.90;;;;;;;17.58;54.66;95386.56;10372817;28;20090;-30
2023/03/31 17:59:09;;;;;;;5.03;1.90;;;;;;;17.66;57.86;95402.47;10377135;28;20038;-30
2023/03/31 18:04:10;;;;;;;8.73;1.48;;;;;;;17.56;49.60;95413.63;10345708;28;20030;-30
2023/03/31 18:09:10;;;;;;;3.50;1.85;;;;;;;17.50;49.03;95417.06;10353227;28;20079;-30
2023/03/31 18:14:11;;;;;;;2.93;1.40;;;;;;;17.46;48.18;95405.34;10338193;28;20042;-30
2023/03/31 18:19:11;;;;;;;3.50;1.27;;;;;;;17.43;48.19;95414.66;10340725;28;20309;-30
2023/03/31 18:24:12;;;;;;;3.45;1.05;;;;;;;17.42;47.99;95407.94;10342921;28;20034;-30
2023/03/31 18:29:13;;;;;;;4.13;1.83;;;;;;;17.40;48.28;95412.19;10340994;28;20038;-30
2023/03/31 18:34:15;;;;;;;2.58;1.33;;;;;;;17.39;48.19;95406.28;10343919;28;20026;-30
2023/03/31 18:39:15;;;;;;;2.83;1.30;;;;;;;17.40;48.05;95414.72;10346009;28;20038;-30
2023/03/31 18:44:16;;;;;;;2.10;1.00;;;;;;;17.41;48.33;95416.41;10365721;28;20038;-30
2023/03/31 18:49:18;;;;;;;3.40;1.92;;;;;;;17.41;48.18;95414.69;10356057;28;20064;-30
2023/03/31 18:54:20;;;;;;;6.53;1.83;;;;;;;17.51;55.64;95420.44;10360238;28;20030;-29
2023/03/31 18:59:20;;;;;;;5.47;1.98;;;;;;;17.63;57.94;95422.75;10347093;28;20037;-30
2023/03/31 19:04:20;;;;;;;3.20;1.33;;;;;;;17.58;51.57;95430.41;10340342;28;20038;-30
2023/03/31 19:09:24;;;;;;;2.13;1.10;;;;;;;17.52;48.92;95432.22;10348012;28;20033;-30
2023/03/31 19:14:25;;;;;;;3.97;1.23;;;;;;;17.49;48.39;95452.53;10344804;28;20030;-30
2023/03/31 19:19:26;;;;;;;2.25;1.40;;;;;;;17.46;48.04;95465.19;10352175;28;20034;-29
2023/03/31 19:24:26;;;;;;;3.63;1.20;;;;;;;17.47;48.34;95469.41;10338042;28;20330;-30
2023/03/31 19:29:29;;;;;;;2.60;1.10;;;;;;;17.45;48.27;95459.34;10345250;28;20421;-30
2023/03/31 19:34:29;;;;;;;3.70;1.38;;;;;;;17.46;48.24;95471.13;10352296;28;20061;-30
2023/03/31 19:39:29;;;;;;;3.60;1.03;;;;;;;17.46;48.23;95495.56;10343972;28;20405;-30
2023/03/31 19:44:30;;;;;;;2.27;1.30;;;;;;;17.45;47.77;95488.84;10350633;28;20524;-30
2023/03/31 19:49:30;;;;;;;2.70;1.50;;;;;;;17.46;48.02;95501.47;10341612;28;20038;-30
2023/03/31 19:54:31;;;;;;;2.90;1.50;;;;;;;17.46;48.31;95487.97;10339039;28;20452;-31
2023/03/31 19:59:31;;;;;;;4.45;2.65;;;;;;;17.60;57.24;95508.84;10349967;28;20037;-29
2023/03/31 20:04:32;;;;;;;6.30;2.00;;;;;;;17.65;58.35;95502.03;10353797;28;20486;-30
2023/03/31 20:09:33;;;;;;;3.05;1.10;;;;;;;17.58;49.76;95511.38;10369932;28;20030;-30
2023/03/31 20:14:33;;;;;;;3.58;1.23;;;;;;;17.53;48.34;95509.78;10341747;28;20034;-30
2023/03/31 20:19:33;;;;;;;3.27;1.20;;;;;;;17.50;48.25;95517.44;10364064;28;20133;-30
2023/03/31 20:24:34;;;;;;;1.88;1.08;;;;;;;17.49;48.42;95505.66;10360475;28;20042;-29
2023/03/31 20:29:34;;;;;;;1.53;0.80;;;;;;;17.50;48.97;95518.25;10354815;28;20054;-30
2023/03/31 20:34:35;;;;;;;3.60;1.67;;;;;;;17.49;48.16;95525.91;10336743;28;20034;-30
2023/03/31 20:39:36;;;;;;;2.30;1.20;;;;;;;17.47;47.91;95525.06;10346924;28;20096;-30
2023/03/31 20:44:36;;;;;;;1.77;1.02;;;;;;;17.46;48.74;95520.88;10356624;28;20026;-30
2023/03/31 20:49:37;;;;;;;3.60;2.40;;;;;;;17.54;55.70;95534.25;10354679;28;20065;-30
2023/03/31 20:54:37;;;;;;;3.72;1.60;;;;;;;17.66;58.88;95537.41;10361661;28;20297;-30
2023/03/31 20:59:40;;;;;;;2.13;1.00;;;;;;;17.63;52.16;95559.41;10371940;28;20052;-30
2023/03/31 21:04:40;;;;;;;1.77;1.10;;;;;;;17.59;49.10;95557.78;10344301;28;20117;-30
2023/03/31 21:09:41;;;;;;;3.08;1.30;;;;;;;17.52;48.29;95533.44;10351113;28;20042;-30
2023/03/31 21:14:41;;;;;;;1.20;0.90;;;;;;;17.48;48.47;95539.41;10361574;28;20038;-30
2023/03/31 21:19:42;;;;;;;1.73;0.87;;;;;;;17.47;47.93;95542.78;10352760;28;20762;-30
2023/03/31 21:24:42;;;;;;;2.70;1.10;;;;;;;17.45;48.04;95534.38;10368866;28;20033;-29
2023/03/31 21:29:42;;;;;;;2.53;1.10;;;;;;;17.46;47.73;95556.28;10350036;28;20042;-30
2023/03/31 21:34:43;;;;;;;1.77;1.13;;;;;;;17.44;48.12;95552.94;10351244;28;20099;-30
2023/03/31 21:39:43;;;;;;;6.90;1.70;;;;;;;17.57;55.53;95536.75;10352263;28;20029;-29
2023/03/31 21:44:43;;;;;;;4.70;1.43;;;;;;;17.54;54.11;95534.25;10369631;28;20049;-30
2023/03/31 21:49:44;;;;;;;5.43;1.50;;;;;;;17.60;54.44;95537.53;10351478;28;20107;-30
2023/03/31 21:54:44;;;;;;;5.07;1.33;;;;;;;17.71;60.08;95537.34;10364581;28;20030;-30
2023/03/31 21:59:45;;;;;;;3.67;1.63;;;;;;;17.71;52.55;95543.25;10383953;28;20064;-30
2023/03/31 22:04:45;;;;;;;5.40;2.13;;;;;;;17.71;52.87;95547.47;10365170;28;20053;-30
2023/03/31 22:09:45;;;;;;;5.97;1.40;;;;;;;17.71;52.94;95562.66;10361793;28;20248;-29
2023/03/31 22:14:46;;;;;;;3.20;1.00;;;;;;;17.69;53.22;95564.38;10353783;28;20597;-30
2023/03/31 22:19:47;;;;;;;1.73;1.05;;;;;;;17.68;53.28;95588.03;10364915;28;20127;-30
2023/03/31 22:24:50;;;;;;;1.83;1.05;;;;;;;17.67;53.88;95577.06;10345280;28;20030;-31
2023/03/31 22:29:50;;;;;;;3.83;1.40;;;;;;;17.67;54.32;95555.97;10351028;28;20382;-30
2023/03/31 22:34:50;;;;;;;2.63;1.10;;;;;;;17.66;54.25;95560.19;10340946;28;20025;-30
2023/03/31 22:39:51;;;;;;;2.03;0.90;;;;;;;17.67;51.93;95544.16;10334244;28;20030;-30
2023/03/31 22:44:51;;;;;;;3.80;1.40;;;;;;;17.70;53.00;95545.81;10340786;28;20040;-30
2023/03/31 22:49:52;;;;;;;3.80;1.40;;;;;;;17.71;54.90;95543.25;10372613;28;20627;-30
2023/03/31 22:54:52;;;;;;;6.55;2.40;;;;;;;17.77;56.72;95560.03;10349860;28;20449;-29
2023/03/31 22:59:52;;;;;;;6.00;1.70;;;;;;;17.79;55.56;95569.28;10352752;28;20509;-30
2023/03/31 23:04:53;;;;;;;5.27;1.90;;;;;;;17.73;55.55;95566.84;10369134;28;20056;-30
2023/03/31 23:09:53;;;;;;;6.43;2.10;;;;;;;17.72;54.99;95567.69;10360873;28;20033;-30
2023/03/31 23:14:54;;;;;;;6.27;1.90;;;;;;;17.73;54.61;95553.38;10364001;28;20092;-31
2023/03/31 23:19:54;;;;;;;8.45;2.20;;;;;;;17.75;55.53;95554.16;10379006;28;20060;-30
2023/03/31 23:24:54;;;;;;;7.00;2.13;;;;;;;17.71;58.33;95555.91;10380251;28;20033;-30
2023/03/31 23:29:55;;;;;;;6.23;2.60;;;;;;;17.71;57.65;95567.72;10384985;28;20109;-30
2023/03/31 23:34:55;;;;;;;9.17;3.40;;;;;;;17.71;57.23;95568.56;10387546;28;20388;-30
2023/03/31 23:39:56;;;;;;;7.03;1.98;;;;;;;17.73;58.27;95598.94;10364908;28;20417;-30